Time;durP1;ratioP1;P1;durP2;ratioP2;P2;SDS_P1;SDS_P2;PMS_P1;PMS_P2;Temp;Humidity;BMP_temperature;BMP_pressure;BME280_temperature;BME280_humidity;BME280_pressure;Samples;Min_cycle;Max_cycle;Signal;HPM_P1;HPM_P2
2020/12/04 00:00:33;;;;;;;1.45;1.05;;;23.60;31.50;;;;;;5026353;28;20077;-51
2020/12/04 00:02:59;;;;;;;1.27;1.08;;;23.60;31.50;;;;;;5024054;28;20087;-50
2020/12/04 00:05:25;;;;;;;1.10;0.85;;;23.50;31.50;;;;;;5030570;28;20170;-52
2020/12/04 00:07:50;;;;;;;1.60;1.10;;;23.50;31.50;;;;;;5030160;28;20052;-52
2020/12/04 00:10:16;;;;;;;1.08;0.95;;;23.50;31.60;;;;;;5025677;28;20025;-50
2020/12/04 00:12:42;;;;;;;1.10;1.00;;;23.50;31.60;;;;;;5028209;28;20041;-50
2020/12/04 00:15:08;;;;;;;0.82;0.82;;;23.50;31.70;;;;;;5023156;28;20030;-53
2020/12/04 00:17:35;;;;;;;1.00;0.90;;;23.50;31.70;;;;;;5021182;28;20107;-51
2020/12/04 00:20:01;;;;;;;1.38;0.80;;;23.50;31.80;;;;;;5028491;28;20095;-51
2020/12/04 00:22:27;;;;;;;1.38;0.70;;;23.50;31.80;;;;;;5025136;28;20330;-52
2020/12/04 00:24:53;;;;;;;1.42;0.95;;;23.40;32.40;;;;;;5012884;28;20033;-52
2020/12/04 00:27:18;;;;;;;1.55;1.00;;;23.40;31.80;;;;;;5011444;28;20022;-51
2020/12/04 00:29:44;;;;;;;1.00;0.90;;;23.40;31.80;;;;;;5012315;28;20041;-50
2020/12/04 00:32:10;;;;;;;1.23;0.85;;;23.40;31.80;;;;;;5006514;28;20049;-49
2020/12/04 00:34:35;;;;;;;0.80;0.80;;;23.40;31.80;;;;;;5001265;28;20061;-48
2020/12/04 00:37:01;;;;;;;1.20;0.90;;;23.40;31.80;;;;;;5005613;28;20147;-54
2020/12/04 00:39:27;;;;;;;1.30;0.80;;;23.30;32.40;;;;;;5005403;28;20046;-49
2020/12/04 00:41:57;;;;;;;1.25;1.00;;;23.30;31.80;;;;;;5005937;28;20488;-48
2020/12/04 00:44:23;;;;;;;1.02;0.80;;;23.30;31.80;;;;;;4981847;28;20173;-54
2020/12/04 00:46:49;;;;;;;1.40;1.05;;;23.30;31.80;;;;;;5002079;28;20121;-51
2020/12/04 00:49:14;;;;;;;1.00;0.90;;;23.30;31.80;;;;;;5005052;28;20030;-49
2020/12/04 00:51:40;;;;;;;1.45;1.00;;;23.30;31.90;;;;;;4989179;28;20027;-49
2020/12/04 00:54:07;;;;;;;1.40;1.00;;;23.30;31.90;;;;;;5002827;28;20462;-50
2020/12/04 00:56:34;;;;;;;1.20;1.00;;;23.20;31.80;;;;;;4991652;28;20434;-54
2020/12/04 00:59:08;;;;;;;1.33;0.88;;;23.20;31.80;;;;;;4993126;28;20036;-52
2020/12/04 01:01:34;;;;;;;1.02;0.88;;;23.20;31.80;;;;;;5006329;28;20041;-52
2020/12/04 01:03:59;;;;;;;1.50;0.82;;;23.20;31.90;;;;;;5007006;28;20057;-48
2020/12/04 01:06:25;;;;;;;1.20;0.90;;;23.20;31.90;;;;;;4994874;28;20065;-49
2020/12/04 01:08:51;;;;;;;1.20;0.90;;;23.20;31.90;;;;;;5008320;28;20034;-53
2020/12/04 01:11:20;;;;;;;1.05;0.95;;;23.20;31.90;;;;;;5011471;28;20034;-51
2020/12/04 01:13:46;;;;;;;1.10;0.80;;;23.20;31.90;;;;;;5009998;28;20096;-50
2020/12/04 01:16:11;;;;;;;1.42;0.93;;;23.10;31.80;;;;;;5008081;28;20026;-49
2020/12/04 01:18:41;;;;;;;1.08;0.90;;;23.10;31.80;;;;;;5008880;28;20061;-49
2020/12/04 01:21:10;;;;;;;1.10;0.90;;;23.10;31.80;;;;;;5007667;28;20353;-49
2020/12/04 01:23:36;;;;;;;1.95;1.10;;;23.10;31.80;;;;;;5012468;28;20053;-47
2020/12/04 01:26:01;;;;;;;1.05;0.85;;;23.10;31.80;;;;;;5021729;28;20026;-52
2020/12/04 01:28:27;;;;;;;1.10;0.90;;;23.10;31.80;;;;;;5025614;28;20083;-52
2020/12/04 01:30:53;;;;;;;0.85;0.80;;;23.10;31.90;;;;;;5029300;28;20034;-51
2020/12/04 01:33:19;;;;;;;0.95;0.85;;;23.10;31.90;;;;;;5025974;28;20088;-49
2020/12/04 01:35:44;;;;;;;1.00;0.95;;;23.00;31.80;;;;;;5026819;28;20356;-52
2020/12/04 01:38:10;;;;;;;1.20;0.80;;;23.00;31.80;;;;;;5026829;28;20052;-50
2020/12/04 01:40:36;;;;;;;1.00;0.90;;;23.00;31.80;;;;;;5031507;28;20037;-48
2020/12/04 01:43:02;;;;;;;0.73;0.70;;;23.00;31.80;;;;;;5022583;28;20026;-52
2020/12/04 01:45:28;;;;;;;1.20;0.93;;;23.00;31.80;;;;;;5026240;28;20024;-47
2020/12/04 01:47:55;;;;;;;0.90;0.70;;;23.00;31.80;;;;;;5027898;28;20327;-50
2020/12/04 01:50:24;;;;;;;1.67;1.10;;;23.00;31.80;;;;;;5027681;28;20037;-51
2020/12/04 01:52:51;;;;;;;1.30;1.00;;;23.00;31.80;;;;;;5005981;28;20333;-47
2020/12/04 01:55:16;;;;;;;1.10;0.88;;;22.90;31.80;;;;;;5026642;28;20037;-52
2020/12/04 01:57:46;;;;;;;0.80;0.80;;;22.90;31.80;;;;;;5026645;28;20417;-51
2020/12/04 02:00:13;;;;;;;1.00;0.90;;;22.90;31.80;;;;;;5023775;28;20037;-52
2020/12/04 02:02:42;;;;;;;0.80;0.80;;;22.90;31.80;;;;;;5023195;28;20095;-47
2020/12/04 02:05:08;;;;;;;1.25;0.90;;;22.90;31.80;;;;;;5023324;28;20053;-51
2020/12/04 02:08:01;;;;;;;1.10;0.80;;;22.90;31.80;;;;;;5022628;28;20056;-51
2020/12/04 02:10:50;;;;;;;0.88;0.75;;;22.90;31.80;;;;;;5023753;28;20033;-46
2020/12/04 02:13:16;;;;;;;1.20;1.10;;;22.90;31.80;;;;;;5023259;28;20456;-51
2020/12/04 02:15:44;;;;;;;1.02;0.90;;;22.80;31.80;;;;;;5024846;28;20069;-50
2020/12/04 02:18:10;;;;;;;0.70;0.68;;;22.90;31.90;;;;;;5025318;28;20123;-51
2020/12/04 02:20:37;;;;;;;1.17;1.05;;;22.80;31.80;;;;;;5026509;28;20052;-51
2020/12/04 02:23:03;;;;;;;0.70;0.70;;;22.80;31.80;;;;;;5016035;28;20043;-50
2020/12/04 02:25:29;;;;;;;1.10;0.80;;;22.80;31.90;;;;;;5003706;28;20167;-47
2020/12/04 02:27:54;;;;;;;0.82;0.70;;;22.80;31.80;;;;;;5005093;28;20117;-50
2020/12/04 02:30:35;;;;;;;1.10;1.00;;;22.80;31.80;;;;;;5002601;28;20127;-46
2020/12/04 02:33:01;;;;;;;1.25;0.80;;;22.80;31.80;;;;;;5004871;28;20034;-51
2020/12/04 02:35:27;;;;;;;1.15;0.93;;;22.70;31.80;;;;;;5007830;28;20120;-49
2020/12/04 02:37:53;;;;;;;1.38;0.98;;;22.70;31.80;;;;;;5005358;28;20105;-50
2020/12/04 02:40:21;;;;;;;0.70;0.70;;;22.70;31.80;;;;;;5004927;28;20046;-52
2020/12/04 02:42:47;;;;;;;3.30;0.80;;;22.70;31.90;;;;;;5004970;28;20038;-49
2020/12/04 02:45:14;;;;;;;0.90;0.68;;;22.70;31.90;;;;;;5003841;28;20034;-52
2020/12/04 02:47:40;;;;;;;1.30;0.70;;;22.70;31.90;;;;;;5000365;28;20290;-54
2020/12/04 02:50:06;;;;;;;1.42;0.88;;;22.70;31.90;;;;;;5004670;28;20030;-49
2020/12/04 02:52:32;;;;;;;0.80;0.68;;;22.70;31.90;;;;;;5005039;28;20026;-49
2020/12/04 02:54:58;;;;;;;0.70;0.68;;;22.60;31.90;;;;;;5005348;28;20044;-51
2020/12/04 02:57:24;;;;;;;1.23;1.00;;;22.70;32.00;;;;;;5006836;28;20045;-50
2020/12/04 02:59:50;;;;;;;0.75;0.75;;;22.60;31.90;;;;;;5004510;28;20018;-54
2020/12/04 03:02:15;;;;;;;0.80;0.70;;;22.70;32.00;;;;;;5004808;28;20026;-53
2020/12/04 03:04:43;;;;;;;0.93;0.82;;;22.70;32.00;;;;;;5003832;28;20034;-51
2020/12/04 03:07:10;;;;;;;0.82;0.70;;;22.60;31.90;;;;;;5007757;28;20108;-51
2020/12/04 03:09:36;;;;;;;1.05;0.70;;;22.60;31.90;;;;;;5004030;28;20022;-48
2020/12/04 03:12:02;;;;;;;0.80;0.60;;;22.60;32.00;;;;;;5005593;28;20481;-50
2020/12/04 03:14:28;;;;;;;0.90;0.70;;;22.60;32.00;;;;;;5002604;28;20117;-49
2020/12/04 03:16:53;;;;;;;1.00;0.70;;;22.60;32.30;;;;;;5004097;28;20092;-50
2020/12/04 03:19:19;;;;;;;0.85;0.80;;;22.60;32.00;;;;;;5003060;28;20026;-46
2020/12/04 03:21:45;;;;;;;0.98;0.70;;;22.60;32.00;;;;;;5006513;28;20088;-49
2020/12/04 03:24:11;;;;;;;0.75;0.70;;;22.60;32.00;;;;;;5003211;28;20374;-48
2020/12/04 03:26:37;;;;;;;1.13;0.82;;;22.60;32.00;;;;;;5003505;28;20029;-50
2020/12/04 03:29:03;;;;;;;0.77;0.60;;;22.50;32.00;;;;;;5002817;28;20026;-51
2020/12/04 03:31:28;;;;;;;0.68;0.68;;;22.50;32.00;;;;;;5004961;28;20022;-49
2020/12/04 03:33:54;;;;;;;0.93;0.80;;;22.50;32.00;;;;;;4987902;28;20022;-47
2020/12/04 03:36:20;;;;;;;0.73;0.68;;;22.50;32.00;;;;;;5005516;28;20028;-49
2020/12/04 03:38:46;;;;;;;1.30;0.63;;;22.50;32.10;;;;;;5003907;28;20022;-50
2020/12/04 03:41:12;;;;;;;0.80;0.70;;;22.50;32.10;;;;;;5003788;28;20395;-46
2020/12/04 03:43:40;;;;;;;0.82;0.63;;;22.50;32.10;;;;;;5004509;28;20030;-48
2020/12/04 03:46:12;;;;;;;1.05;0.70;;;22.50;32.10;;;;;;5004940;28;20101;-50
2020/12/04 03:48:39;;;;;;;1.48;0.52;;;22.50;32.10;;;;;;5004441;28;20034;-53
2020/12/04 03:51:05;;;;;;;0.85;0.68;;;22.50;32.10;;;;;;4984903;28;20022;-49
2020/12/04 03:53:32;;;;;;;1.77;0.65;;;22.40;32.00;;;;;;4987803;28;20026;-50
2020/12/04 03:55:57;;;;;;;0.82;0.70;;;22.40;32.10;;;;;;5003363;28;20072;-52
2020/12/04 03:58:23;;;;;;;0.90;0.70;;;22.40;32.10;;;;;;5002213;28;20407;-52
2020/12/04 04:00:49;;;;;;;0.80;0.70;;;22.40;32.10;;;;;;5004421;28;20128;-48
2020/12/04 04:03:15;;;;;;;0.73;0.73;;;22.40;32.10;;;;;;5002395;28;20446;-51
2020/12/04 04:05:41;;;;;;;1.25;0.77;;;22.40;32.10;;;;;;5002146;28;20025;-53
2020/12/04 04:08:07;;;;;;;0.60;0.50;;;22.40;32.10;;;;;;5004711;28;20034;-53
2020/12/04 04:10:32;;;;;;;1.02;0.60;;;22.40;32.10;;;;;;5000920;28;20095;-48
2020/12/04 04:12:58;;;;;;;1.10;0.60;;;22.40;32.20;;;;;;5003789;28;20346;-48
2020/12/04 04:15:24;;;;;;;0.70;0.60;;;22.40;32.10;;;;;;5001829;28;20030;-48
2020/12/04 04:17:50;;;;;;;0.80;0.63;;;22.40;32.20;;;;;;5000356;28;20031;-50
2020/12/04 04:20:15;;;;;;;1.05;0.50;;;22.40;32.20;;;;;;5004198;28;20037;-49
2020/12/04 04:22:41;;;;;;;0.70;0.60;;;22.40;32.20;;;;;;5005589;28;20358;-52
2020/12/04 04:25:07;;;;;;;0.60;0.60;;;22.40;32.20;;;;;;5005159;28;20030;-50
2020/12/04 04:27:33;;;;;;;0.80;0.70;;;22.40;32.20;;;;;;5007947;28;20040;-51
2020/12/04 04:29:58;;;;;;;1.02;0.73;;;22.30;32.20;;;;;;5005765;28;20030;-48
2020/12/04 04:32:24;;;;;;;0.65;0.65;;;22.30;32.10;;;;;;5008292;28;20026;-50
2020/12/04 04:34:50;;;;;;;0.70;0.70;;;22.30;32.20;;;;;;5006912;28;20414;-48
2020/12/04 04:37:16;;;;;;;0.68;0.57;;;22.30;32.20;;;;;;5007490;28;20021;-51
2020/12/04 04:39:44;;;;;;;0.77;0.57;;;22.30;32.20;;;;;;5003892;28;20470;-51
2020/12/04 04:42:10;;;;;;;0.60;0.60;;;22.30;32.20;;;;;;5008413;28;20034;-49
2020/12/04 04:44:36;;;;;;;0.80;0.60;;;22.30;32.20;;;;;;5005682;28;20030;-50
2020/12/04 04:47:11;;;;;;;0.60;0.60;;;22.30;32.20;;;;;;5007343;28;20026;-52
2020/12/04 04:49:44;;;;;;;0.70;0.50;;;22.30;32.30;;;;;;5007617;28;20398;-51
2020/12/04 04:52:10;;;;;;;0.40;0.40;;;22.30;32.30;;;;;;5007487;28;20054;-48
2020/12/04 04:54:39;;;;;;;0.57;0.57;;;22.30;32.20;;;;;;5006623;28;20037;-46
2020/12/04 04:57:05;;;;;;;0.60;0.50;;;22.20;32.20;;;;;;5006539;28;20033;-48
2020/12/04 04:59:31;;;;;;;0.80;0.70;;;22.30;32.30;;;;;;5006238;28;20362;-48
2020/12/04 05:01:57;;;;;;;1.20;0.55;;;22.20;32.20;;;;;;5008915;28;20132;-48
2020/12/04 05:04:23;;;;;;;0.70;0.60;;;22.20;32.20;;;;;;5008346;28;20023;-52
2020/12/04 05:06:49;;;;;;;0.50;0.50;;;22.20;32.20;;;;;;5005820;28;20026;-51
2020/12/04 05:09:17;;;;;;;0.65;0.50;;;22.20;32.20;;;;;;5004513;28;20374;-50
2020/12/04 05:11:56;;;;;;;1.15;0.70;;;22.20;32.20;;;;;;5005116;28;20445;-54
2020/12/04 05:14:24;;;;;;;0.80;0.63;;;22.20;32.20;;;;;;5005839;28;20350;-48
2020/12/04 05:16:56;;;;;;;0.85;0.60;;;22.20;32.20;;;;;;5003058;28;20090;-48
2020/12/04 05:19:48;;;;;;;0.68;0.50;;;22.20;32.20;;;;;;5004408;28;20034;-47
2020/12/04 05:22:15;;;;;;;0.75;0.60;;;22.20;32.20;;;;;;5004511;28;20071;-50
2020/12/04 05:24:42;;;;;;;0.98;0.70;;;22.10;32.10;;;;;;5023754;28;20478;-51
2020/12/04 05:27:28;;;;;;;1.13;0.63;;;22.20;32.20;;;;;;5023043;28;20026;-50
2020/12/04 05:29:55;;;;;;;0.40;0.40;;;22.10;32.10;;;;;;5023938;28;20034;-51
2020/12/04 05:32:22;;;;;;;0.55;0.55;;;22.10;32.10;;;;;;5029950;28;20074;-50
2020/12/04 05:34:48;;;;;;;1.23;0.93;;;22.10;32.10;;;;;;5028950;28;20044;-53
2020/12/04 05:37:18;;;;;;;1.20;0.60;;;22.10;32.20;;;;;;5024631;28;20087;-47
2020/12/04 05:39:47;;;;;;;1.13;0.82;;;22.10;32.20;;;;;;5024388;28;20033;-52
2020/12/04 05:42:35;;;;;;;0.70;0.60;;;22.10;32.20;;;;;;5023502;28;20113;-50
2020/12/04 05:45:04;;;;;;;0.52;0.52;;;22.10;32.20;;;;;;5024276;28;20087;-53
2020/12/04 05:47:42;;;;;;;0.77;0.50;;;22.10;32.20;;;;;;5022877;28;20512;-49
2020/12/04 05:50:10;;;;;;;0.70;0.63;;;22.10;32.20;;;;;;5022579;28;20140;-51
2020/12/04 05:52:37;;;;;;;0.73;0.50;;;22.10;32.20;;;;;;5028978;28;20026;-52
2020/12/04 05:55:04;;;;;;;0.70;0.70;;;22.10;32.20;;;;;;5024609;28;20091;-51
2020/12/04 05:57:52;;;;;;;1.05;0.50;;;22.10;32.20;;;;;;5024936;28;20025;-49
2020/12/04 06:00:19;;;;;;;0.93;0.43;;;22.10;32.20;;;;;;5023499;28;20408;-51
2020/12/04 06:02:46;;;;;;;0.50;0.50;;;22.10;32.20;;;;;;5024475;28;20021;-51
2020/12/04 06:05:14;;;;;;;0.60;0.47;;;22.10;32.20;;;;;;5024235;28;20587;-46
2020/12/04 06:07:40;;;;;;;0.90;0.57;;;22.10;32.30;;;;;;5026182;28;20040;-49
2020/12/04 06:10:07;;;;;;;0.50;0.50;;;22.10;32.30;;;;;;5023315;28;20030;-46
2020/12/04 06:12:33;;;;;;;1.08;0.55;;;22.00;32.20;;;;;;5025654;28;20040;-48
2020/12/04 06:15:23;;;;;;;0.90;0.47;;;22.00;32.20;;;;;;5023213;28;20029;-50
2020/12/04 06:17:49;;;;;;;0.60;0.40;;;22.10;32.30;;;;;;5025700;28;20033;-47
2020/12/04 06:20:20;;;;;;;0.70;0.50;;;22.00;32.30;;;;;;5024568;28;20037;-48
2020/12/04 06:23:11;;;;;;;0.93;0.55;;;22.00;32.30;;;;;;5019759;28;20125;-53
2020/12/04 06:25:53;;;;;;;0.50;0.50;;;22.00;32.30;;;;;;5005197;28;20080;-51
2020/12/04 06:28:21;;;;;;;1.10;0.50;;;22.00;32.30;;;;;;5004452;28;20040;-52
2020/12/04 06:31:05;;;;;;;0.98;0.60;;;22.00;32.30;;;;;;5005657;28;20032;-50
2020/12/04 06:33:33;;;;;;;0.73;0.50;;;22.00;32.30;;;;;;5001280;28;20034;-51
2020/12/04 06:36:00;;;;;;;0.43;0.40;;;21.90;32.30;;;;;;5004906;28;20048;-49
2020/12/04 06:38:36;;;;;;;1.38;0.43;;;21.90;32.30;;;;;;5004450;28;20042;-48
2020/12/04 06:41:26;;;;;;;0.40;0.40;;;22.00;32.30;;;;;;5007882;28;20045;-52
2020/12/04 06:43:55;;;;;;;0.40;0.40;;;22.00;32.30;;;;;;5005970;28;20027;-46
2020/12/04 06:46:37;;;;;;;1.00;0.50;;;22.00;32.30;;;;;;5003473;28;20116;-52
2020/12/04 06:49:09;;;;;;;2.95;0.63;;;21.90;32.30;;;;;;5005144;28;20062;-54
2020/12/04 06:51:39;;;;;;;0.40;0.40;;;21.90;32.30;;;;;;5002625;28;20056;-52
2020/12/04 06:54:06;;;;;;;0.60;0.60;;;21.90;32.30;;;;;;5003663;28;20449;-55
2020/12/04 06:56:34;;;;;;;0.60;0.52;;;21.90;32.40;;;;;;5005192;28;20146;-55
2020/12/04 06:59:00;;;;;;;0.90;0.50;;;21.90;32.30;;;;;;5002760;28;20026;-48
2020/12/04 07:01:26;;;;;;;0.38;0.38;;;21.90;32.30;;;;;;5006584;28;20047;-46
2020/12/04 07:03:56;;;;;;;0.60;0.50;;;21.90;32.30;;;;;;5001243;28;20018;-47
2020/12/04 07:06:25;;;;;;;0.50;0.43;;;21.90;32.40;;;;;;5005600;28;20113;-48
2020/12/04 07:09:03;;;;;;;0.95;0.47;;;21.90;32.40;;;;;;5003916;28;20077;-52
2020/12/04 07:11:30;;;;;;;0.70;0.50;;;21.90;32.40;;;;;;5001653;28;20041;-49
2020/12/04 07:13:56;;;;;;;2.75;0.57;;;21.90;32.40;;;;;;5004454;28;20105;-47
2020/12/04 07:16:23;;;;;;;0.70;0.45;;;21.80;32.30;;;;;;5008533;28;20037;-49
2020/12/04 07:18:50;;;;;;;1.10;0.52;;;21.80;32.30;;;;;;5003211;28;20053;-47
2020/12/04 07:21:16;;;;;;;0.43;0.35;;;21.80;32.40;;;;;;5005114;28;20100;-47
2020/12/04 07:23:43;;;;;;;0.60;0.50;;;21.80;32.40;;;;;;5002851;28;20455;-55
2020/12/04 07:26:15;;;;;;;0.73;0.50;;;21.90;32.40;;;;;;5006343;28;20037;-47
2020/12/04 07:28:43;;;;;;;0.65;0.40;;;21.80;32.40;;;;;;5003321;28;20132;-47
2020/12/04 07:31:21;;;;;;;0.45;0.45;;;21.80;32.50;;;;;;5005419;28;20045;-48
2020/12/04 07:33:57;;;;;;;0.40;0.40;;;21.80;32.50;;;;;;5003882;28;20027;-51
2020/12/04 07:36:26;;;;;;;0.60;0.30;;;21.80;32.60;;;;;;5002806;28;20030;-50
2020/12/04 07:39:00;;;;;;;1.35;0.40;;;21.80;32.90;;;;;;4999435;28;20792;-52
2020/12/04 07:41:31;;;;;;;1.55;0.35;;;21.90;33.40;;;;;;5008143;28;20038;-54
2020/12/04 07:44:01;;;;;;;0.30;0.30;;;21.90;33.60;;;;;;5004722;28;20034;-50
2020/12/04 07:46:29;;;;;;;0.40;0.40;;;22.00;33.90;;;;;;5003732;28;20037;-55
2020/12/04 07:49:16;;;;;;;0.77;0.45;;;22.00;33.90;;;;;;5003448;28;20372;-56
2020/12/04 07:51:42;;;;;;;0.60;0.50;;;22.10;33.90;;;;;;5002187;28;20058;-50
2020/12/04 07:54:23;;;;;;;1.02;0.45;;;22.20;33.90;;;;;;5001610;28;20085;-55
2020/12/04 07:56:58;;;;;;;0.55;0.35;;;22.30;33.90;;;;;;4985570;28;20456;-50
2020/12/04 07:59:32;;;;;;;2.05;0.30;;;22.40;34.40;;;;;;5005739;28;20022;-53
2020/12/04 08:02:03;;;;;;;0.40;0.40;;;22.60;33.70;;;;;;5004718;28;20057;-51
2020/12/04 08:04:31;;;;;;;0.85;0.60;;;22.70;33.50;;;;;;5006394;28;20045;-51
2020/12/04 08:07:07;;;;;;;0.47;0.40;;;22.90;33.40;;;;;;5007174;28;20040;-50
2020/12/04 08:09:38;;;;;;;1.42;0.60;;;23.00;33.20;;;;;;5007365;28;20446;-60
2020/12/04 08:12:08;;;;;;;0.85;0.63;;;23.20;33.10;;;;;;5006327;28;20033;-56
2020/12/04 08:14:35;;;;;;;0.80;0.60;;;23.40;32.90;;;;;;5006280;28;20109;-55
2020/12/04 08:17:00;;;;;;;0.45;0.43;;;23.50;32.60;;;;;;5005470;28;20450;-54
2020/12/04 08:19:31;;;;;;;0.77;0.70;;;23.70;32.40;;;;;;5007987;28;20026;-53
2020/12/04 08:22:08;;;;;;;0.82;0.50;;;23.80;32.20;;;;;;5007809;28;20073;-51
2020/12/04 08:24:50;;;;;;;0.80;0.50;;;23.90;32.10;;;;;;5024036;28;20056;-52
2020/12/04 08:27:24;;;;;;;0.70;0.55;;;24.00;32.00;;;;;;5024914;28;20048;-56
2020/12/04 08:30:07;;;;;;;0.80;0.63;;;24.10;31.80;;;;;;5022399;28;20130;-51
2020/12/04 08:32:33;;;;;;;1.27;0.40;;;24.10;31.70;;;;;;5011700;28;20041;-51
2020/12/04 08:35:16;;;;;;;0.40;0.38;;;24.20;31.60;;;;;;5026096;28;20029;-51
2020/12/04 08:37:42;;;;;;;0.90;0.50;;;24.30;31.50;;;;;;5027266;28;20407;-53
2020/12/04 08:40:24;;;;;;;0.55;0.40;;;24.30;31.40;;;;;;5024778;28;20038;-54
2020/12/04 08:42:51;;;;;;;0.70;0.60;;;24.40;31.30;;;;;;5023792;28;21138;-54
2020/12/04 08:45:25;;;;;;;0.68;0.43;;;24.40;31.30;;;;;;5009036;28;20021;-48
2020/12/04 08:47:50;;;;;;;1.40;0.33;;;24.40;31.20;;;;;;5025193;28;20380;-48
2020/12/04 08:50:19;;;;;;;0.80;0.45;;;24.40;31.10;;;;;;5035914;28;20284;-49
2020/12/04 08:52:47;;;;;;;0.70;0.40;;;24.50;31.10;;;;;;5033827;28;20029;-51
2020/12/04 08:55:26;;;;;;;0.50;0.40;;;24.50;31.00;;;;;;5032471;28;20026;-53
2020/12/04 08:57:54;;;;;;;0.60;0.30;;;24.60;31.00;;;;;;5030367;28;20044;-54
2020/12/04 09:00:30;;;;;;;0.43;0.30;;;24.60;30.90;;;;;;5033595;28;20353;-51
2020/12/04 09:02:56;;;;;;;0.65;0.30;;;24.60;30.90;;;;;;5022596;28;20034;-52
2020/12/04 09:05:22;;;;;;;0.40;0.40;;;24.70;30.90;;;;;;5025669;28;20037;-51
2020/12/04 09:07:48;;;;;;;0.60;0.40;;;24.70;30.90;;;;;;4990104;28;20467;-51
2020/12/04 09:10:17;;;;;;;0.30;0.30;;;24.70;30.90;;;;;;5029684;28;20029;-50
2020/12/04 09:12:44;;;;;;;0.50;0.40;;;24.70;30.80;;;;;;5026863;28;20053;-52
2020/12/04 09:15:13;;;;;;;0.73;0.43;;;24.80;30.80;;;;;;5025719;28;20034;-51
2020/12/04 09:17:39;;;;;;;0.60;0.50;;;24.80;30.70;;;;;;5027961;28;20021;-50
2020/12/04 09:20:07;;;;;;;0.85;0.50;;;24.80;30.70;;;;;;5025693;28;20121;-53
2020/12/04 09:22:33;;;;;;;0.50;0.32;;;24.80;30.60;;;;;;5024122;28;20029;-51
2020/12/04 09:25:05;;;;;;;0.52;0.40;;;24.90;30.60;;;;;;5004937;28;20037;-53
2020/12/04 09:27:31;;;;;;;0.50;0.40;;;24.90;30.50;;;;;;5007703;28;20125;-50
2020/12/04 09:29:57;;;;;;;1.52;0.40;;;24.90;30.50;;;;;;4988563;28;20122;-49
2020/12/04 09:32:23;;;;;;;1.40;0.50;;;24.90;30.40;;;;;;5006010;28;20026;-50
2020/12/04 09:34:50;;;;;;;0.82;0.40;;;24.90;30.30;;;;;;5009537;28;20025;-51
2020/12/04 09:37:31;;;;;;;1.02;0.50;;;24.90;30.30;;;;;;5007321;28;20045;-50
2020/12/04 09:40:00;;;;;;;0.90;0.60;;;25.00;30.20;;;;;;5006562;28;20044;-51
2020/12/04 09:42:27;;;;;;;0.60;0.40;;;25.00;30.20;;;;;;4988326;28;20041;-49
2020/12/04 09:44:54;;;;;;;0.73;0.40;;;25.00;30.20;;;;;;5007206;28;20076;-52
2020/12/04 09:47:21;;;;;;;1.10;0.70;;;25.00;30.20;;;;;;5004466;28;20049;-49
2020/12/04 09:49:48;;;;;;;0.75;0.40;;;24.90;30.10;;;;;;5010211;28;20354;-52
2020/12/04 09:52:15;;;;;;;0.40;0.40;;;25.00;30.10;;;;;;5009139;28;20129;-53
2020/12/04 09:54:43;;;;;;;0.70;0.60;;;25.00;30.10;;;;;;5005476;28;20233;-49
2020/12/04 09:57:10;;;;;;;1.08;0.52;;;25.00;30.10;;;;;;5006045;28;20026;-52
2020/12/04 09:59:37;;;;;;;0.65;0.40;;;25.00;30.10;;;;;;5003352;28;20064;-51
2020/12/04 10:02:04;;;;;;;0.93;0.40;;;25.00;30.10;;;;;;5007479;28;20135;-52
2020/12/04 10:04:30;;;;;;;0.73;0.40;;;25.00;30.10;;;;;;5005889;28;20135;-52
2020/12/04 10:06:57;;;;;;;0.65;0.40;;;24.90;30.00;;;;;;5005472;28;20029;-54
2020/12/04 10:09:23;;;;;;;0.70;0.40;;;24.90;30.00;;;;;;5004104;28;20061;-52
2020/12/04 10:11:50;;;;;;;0.60;0.45;;;24.90;30.00;;;;;;5005772;28;20029;-52
2020/12/04 10:14:16;;;;;;;0.60;0.40;;;24.90;30.00;;;;;;4993287;28;20022;-50
2020/12/04 10:16:43;;;;;;;0.40;0.40;;;24.90;30.00;;;;;;5008207;28;20046;-54
2020/12/04 10:19:12;;;;;;;0.30;0.30;;;24.90;30.00;;;;;;5003662;28;20086;-53
2020/12/04 10:21:38;;;;;;;1.25;0.35;;;24.90;30.00;;;;;;5003937;28;20050;-54
2020/12/04 10:24:05;;;;;;;0.82;0.50;;;24.90;30.00;;;;;;5020708;28;20048;-51
2020/12/04 10:26:31;;;;;;;1.38;0.35;;;24.90;30.00;;;;;;5026940;28;20432;-52
2020/12/04 10:28:57;;;;;;;0.50;0.20;;;24.90;30.00;;;;;;5024547;28;20044;-52
2020/12/04 10:31:23;;;;;;;0.95;0.40;;;24.90;30.00;;;;;;5022798;28;20106;-53
2020/12/04 10:33:49;;;;;;;0.50;0.40;;;24.90;29.90;;;;;;5025818;28;20041;-49
2020/12/04 10:36:15;;;;;;;0.70;0.45;;;24.90;29.90;;;;;;5027584;28;20519;-52
2020/12/04 10:38:42;;;;;;;0.60;0.22;;;24.80;29.80;;;;;;5025526;28;20060;-53
2020/12/04 10:41:08;;;;;;;0.82;0.30;;;24.80;29.80;;;;;;5024835;28;20050;-58
2020/12/04 10:43:34;;;;;;;0.40;0.22;;;24.80;29.80;;;;;;5022761;28;20036;-56
2020/12/04 10:46:00;;;;;;;2.20;0.20;;;24.90;29.80;;;;;;5025467;28;20021;-50
2020/12/04 10:48:26;;;;;;;0.40;0.25;;;24.80;29.80;;;;;;5026715;28;20022;-54
2020/12/04 10:50:52;;;;;;;0.47;0.30;;;24.80;29.90;;;;;;5027396;28;20038;-52
2020/12/04 10:53:19;;;;;;;0.40;0.30;;;24.80;29.90;;;;;;5006919;28;20356;-52
2020/12/04 10:55:45;;;;;;;0.95;0.30;;;24.80;29.90;;;;;;5025497;28;20365;-51
2020/12/04 10:58:11;;;;;;;2.08;0.32;;;24.80;29.90;;;;;;5005928;28;20022;-52
2020/12/04 11:00:37;;;;;;;0.47;0.40;;;24.80;29.90;;;;;;5024735;28;20112;-52
2020/12/04 11:08:01;;;;;;;0.30;0.30;;;24.80;29.90;;;;;;5024336;28;20030;-54
2020/12/04 11:10:27;;;;;;;0.50;0.30;;;24.80;29.90;;;;;;5024201;28;20029;-54
2020/12/04 11:12:53;;;;;;;0.93;0.47;;;24.80;29.90;;;;;;5022351;28;20026;-54
2020/12/04 11:15:19;;;;;;;2.13;0.55;;;24.80;29.90;;;;;;5023041;28;20109;-60
2020/12/04 11:17:44;;;;;;;1.35;0.30;;;24.80;29.90;;;;;;5023455;28;20428;-57
2020/12/04 11:20:11;;;;;;;0.20;0.20;;;24.80;29.80;;;;;;5021508;28;20025;-53
2020/12/04 11:22:37;;;;;;;0.38;0.32;;;24.80;29.80;;;;;;5024816;28;20041;-61
2020/12/04 11:25:04;;;;;;;2.75;0.50;;;24.90;29.70;;;;;;5028638;28;20021;-54
2020/12/04 11:27:30;;;;;;;0.45;0.28;;;24.90;29.60;;;;;;5032515;28;20069;-51
2020/12/04 11:29:55;;;;;;;1.13;0.20;;;24.90;29.60;;;;;;5031829;28;20127;-49
2020/12/04 11:32:21;;;;;;;0.55;0.20;;;24.90;29.60;;;;;;5030520;28;20095;-52
2020/12/04 11:34:47;;;;;;;0.43;0.30;;;25.00;29.60;;;;;;5031268;28;20180;-57
2020/12/04 11:37:13;;;;;;;0.40;0.38;;;25.00;29.60;;;;;;5001321;28;20048;-54
2020/12/04 11:39:40;;;;;;;0.50;0.30;;;24.90;29.50;;;;;;5030330;28;20038;-54
2020/12/04 11:42:10;;;;;;;1.98;0.30;;;24.90;29.50;;;;;;5007412;28;20044;-51
2020/12/04 11:44:36;;;;;;;0.95;0.32;;;25.00;29.50;;;;;;5021705;28;20048;-49
2020/12/04 11:47:03;;;;;;;0.70;0.30;;;24.90;29.50;;;;;;5025107;28;20041;-49
2020/12/04 11:49:29;;;;;;;0.35;0.28;;;24.90;29.40;;;;;;5019729;28;20025;-48
2020/12/04 11:51:55;;;;;;;0.47;0.20;;;24.90;29.40;;;;;;5023011;28;20029;-53
2020/12/04 11:54:21;;;;;;;0.38;0.30;;;24.90;29.40;;;;;;5029807;28;20041;-56
2020/12/04 11:56:50;;;;;;;1.95;0.20;;;24.80;29.40;;;;;;5029986;28;20091;-53
2020/12/04 11:59:17;;;;;;;0.40;0.30;;;24.80;29.50;;;;;;5030073;28;20030;-50
2020/12/04 12:01:43;;;;;;;1.02;0.20;;;24.80;29.50;;;;;;5030333;28;20041;-51
2020/12/04 12:04:12;;;;;;;0.22;0.20;;;24.80;29.50;;;;;;5017886;28;20040;-54
2020/12/04 12:06:38;;;;;;;0.52;0.30;;;24.80;29.50;;;;;;5030719;28;20391;-50
2020/12/04 12:09:04;;;;;;;1.20;0.38;;;24.80;29.50;;;;;;5024749;28;20025;-56
2020/12/04 12:11:30;;;;;;;0.30;0.10;;;24.70;29.50;;;;;;5023117;28;20037;-58
2020/12/04 12:13:56;;;;;;;0.50;0.20;;;24.70;29.50;;;;;;5025215;28;20048;-60
2020/12/04 12:16:21;;;;;;;2.65;0.30;;;24.70;29.60;;;;;;5008520;28;20045;-54
2020/12/04 12:18:48;;;;;;;0.20;0.20;;;24.70;29.80;;;;;;5025300;28;20124;-54
2020/12/04 12:21:13;;;;;;;0.50;0.20;;;24.70;29.80;;;;;;5022256;28;20141;-53
2020/12/04 12:23:39;;;;;;;0.50;0.20;;;24.70;29.80;;;;;;5016029;28;20141;-54
2020/12/04 12:26:08;;;;;;;0.10;0.10;;;24.70;29.80;;;;;;5007340;28;20030;-61
2020/12/04 12:28:34;;;;;;;0.55;0.30;;;24.70;29.90;;;;;;5006062;28;20038;-57
2020/12/04 12:31:00;;;;;;;1.00;0.30;;;24.70;30.00;;;;;;5009329;28;20030;-54
2020/12/04 12:33:26;;;;;;;0.15;0.15;;;24.70;30.00;;;;;;5011279;28;20033;-53
2020/12/04 12:35:52;;;;;;;0.35;0.30;;;24.70;30.00;;;;;;5008501;28;20453;-54
2020/12/04 12:38:19;;;;;;;0.20;0.20;;;24.70;30.00;;;;;;4993072;28;20030;-56
2020/12/04 12:40:44;;;;;;;1.02;0.17;;;24.70;30.00;;;;;;5011097;28;20057;-57
2020/12/04 12:43:10;;;;;;;0.55;0.30;;;24.70;30.10;;;;;;5013023;28;20357;-56
2020/12/04 12:45:36;;;;;;;0.30;0.20;;;24.80;30.20;;;;;;5011108;28;20040;-51
2020/12/04 12:48:02;;;;;;;1.27;0.32;;;24.80;30.20;;;;;;5014457;28;20421;-52
2020/12/04 12:50:27;;;;;;;0.77;0.22;;;24.80;30.20;;;;;;5016158;28;20404;-54
2020/12/04 12:52:53;;;;;;;0.43;0.28;;;24.80;30.30;;;;;;5015461;28;20030;-52
2020/12/04 12:55:19;;;;;;;0.60;0.30;;;24.80;30.30;;;;;;5015229;28;20022;-57
2020/12/04 12:57:46;;;;;;;3.67;0.30;;;24.80;30.30;;;;;;5015791;28;20446;-57